createdAt,value
2022-10-22T00:00:02.079Z,100523.41
2022-10-22T00:02:03.781Z,100520.22
2022-10-22T00:04:05.677Z,100515.50
2022-10-22T00:06:09.087Z,100510.81
2022-10-22T00:08:10.524Z,100515.94
2022-10-22T00:10:12.272Z,100514.00
2022-10-22T00:12:15.104Z,100524.94
2022-10-22T00:14:16.718Z,100517.88
2022-10-22T00:16:18.283Z,100518.63
2022-10-22T00:18:19.814Z,100519.59
2022-10-22T00:20:21.351Z,100516.16
2022-10-22T00:22:24.205Z,100512.72
2022-10-22T00:24:26.647Z,100517.66
2022-10-22T00:26:28.164Z,100514.97
2022-10-22T00:28:29.656Z,100509.63
2022-10-22T00:30:31.539Z,100501.47
2022-10-22T00:32:33.046Z,100503.81
2022-10-22T00:34:34.645Z,100503.16
2022-10-22T00:36:36.371Z,100504.22
2022-10-22T00:38:39.398Z,100491.91
2022-10-22T00:40:40.882Z,100482.91
2022-10-22T00:42:43.063Z,100477.66
2022-10-22T00:45:05.840Z,100482.28
2022-10-22T00:47:07.388Z,100494.72
2022-10-22T00:49:08.913Z,100495.78
2022-10-22T00:51:10.567Z,100503.50
2022-10-22T00:53:14.817Z,100506.28
2022-10-22T00:55:19.211Z,100513.16
2022-10-22T00:57:22.412Z,100511.84
2022-10-22T00:59:23.924Z,100509.69
2022-10-22T01:01:28.468Z,100515.25
2022-10-22T01:03:29.986Z,100517.97
2022-10-22T01:05:39.261Z,100525.81
2022-10-22T01:07:44.781Z,100520.34
2022-10-22T01:09:55.170Z,100518.69
2022-10-22T01:12:03.635Z,100521.09
2022-10-22T01:14:16.353Z,100526.88
2022-10-22T01:16:27.222Z,100526.88
2022-10-22T01:18:37.011Z,100530.31
2022-10-22T01:20:53.344Z,100523.41
2022-10-22T01:23:07.248Z,100512.94
2022-10-22T01:25:16.985Z,100494.75
2022-10-22T01:27:39.481Z,100494.53
2022-10-22T01:29:48.249Z,100492.47
2022-10-22T01:31:54.920Z,100493.00
2022-10-22T01:33:59.539Z,100490.78
2022-10-22T01:36:02.822Z,100495.38
2022-10-22T01:38:07.608Z,100489.41
2022-10-22T01:40:12.023Z,100499.03
2022-10-22T01:42:14.050Z,100494.53
2022-10-22T01:44:27.932Z,100498.91
2022-10-22T01:46:31.068Z,100497.31
2022-10-22T01:48:40.804Z,100496.91
2022-10-22T01:51:13.445Z,100499.03
2022-10-22T01:53:24.240Z,100510.69
2022-10-22T01:55:30.915Z,100512.63
2022-10-22T01:57:42.492Z,100509.00
2022-10-22T01:59:53.199Z,100514.44
2022-10-22T02:02:03.871Z,100512.97
2022-10-22T02:04:13.623Z,100512.31
2022-10-22T02:06:21.037Z,100510.63
2022-10-22T02:08:25.724Z,100512.66
2022-10-22T02:10:29.493Z,100512.31
2022-10-22T02:12:32.342Z,100517.69
2022-10-22T02:14:37.905Z,100511.78
2022-10-22T02:16:42.748Z,100522.72
2022-10-22T02:18:49.269Z,100521.34
2022-10-22T02:20:52.333Z,100512.44
2022-10-22T02:22:54.291Z,100519.28
2022-10-22T02:24:56.666Z,100512.97
2022-10-22T02:27:06.230Z,100511.28
2022-10-22T02:29:12.113Z,100505.38
2022-10-22T02:31:18.514Z,100502.94
2022-10-22T02:33:24.421Z,100501.00
2022-10-22T02:35:29.149Z,100506.56
2022-10-22T02:37:31.411Z,100501.22
2022-10-22T02:39:35.455Z,100504.00
2022-10-22T02:41:37.624Z,100503.03
2022-10-22T02:43:41.711Z,100514.81
2022-10-22T02:45:43.389Z,100504.75
2022-10-22T02:47:45.050Z,100513.84
2022-10-22T02:49:46.628Z,100510.31
2022-10-22T02:51:49.445Z,100512.03
2022-10-22T02:53:50.907Z,100519.31
2022-10-22T02:55:52.485Z,100516.00
2022-10-22T02:57:53.990Z,100515.34
2022-10-22T02:59:55.486Z,100520.59
2022-10-22T03:01:57.002Z,100519.53
2022-10-22T03:03:58.470Z,100508.41
2022-10-22T03:05:59.997Z,100505.94
2022-10-22T03:08:02.949Z,100503.78
2022-10-22T03:10:05.430Z,100501.00
2022-10-22T03:12:07.084Z,100507.00
2022-10-22T03:14:08.571Z,100501.88
2022-10-22T03:16:10.056Z,100504.75
2022-10-22T03:18:11.586Z,100499.94
2022-10-22T03:20:16.099Z,100507.00
2022-10-22T03:22:25.843Z,100499.94
2022-10-22T03:24:33.976Z,100496.84
2022-10-22T03:26:36.574Z,100501.22
2022-10-22T03:28:39.913Z,100496.84
2022-10-22T03:30:41.376Z,100508.28
2022-10-22T03:32:42.871Z,100507.84
2022-10-22T03:34:44.442Z,100510.66
2022-10-22T03:36:46.644Z,100512.56
2022-10-22T03:38:49.518Z,100509.56
2022-10-22T03:40:52.907Z,100506.78
2022-10-22T03:42:54.434Z,100505.06
2022-10-22T03:44:56.023Z,100504.84
2022-10-22T03:47:00.212Z,100503.56
2022-10-22T03:49:04.095Z,100501.22
2022-10-22T03:51:05.834Z,100502.94
2022-10-22T03:53:07.334Z,100504.84
2022-10-22T03:55:09.852Z,100508.16
2022-10-22T03:57:12.828Z,100509.13
2022-10-22T03:59:14.387Z,100513.41
2022-10-22T04:01:15.899Z,100518.25
2022-10-22T04:03:17.489Z,100520.91
2022-10-22T04:05:18.985Z,100528.19
2022-10-22T04:07:20.538Z,100524.78
2022-10-22T04:09:22.047Z,100519.63
2022-10-22T04:11:23.508Z,100537.41
2022-10-22T04:13:26.470Z,100533.75
2022-10-22T04:15:27.989Z,100544.34
2022-10-22T04:17:33.697Z,100544.47
2022-10-22T04:19:35.245Z,100551.31
2022-10-22T04:21:36.829Z,100554.19
2022-10-22T04:23:39.232Z,100558.81
2022-10-22T04:25:40.766Z,100558.16
2022-10-22T04:27:42.600Z,100549.16
2022-10-22T04:29:45.634Z,100543.38
2022-10-22T04:31:47.159Z,100548.09
2022-10-22T04:33:52.597Z,100547.25
2022-10-22T04:35:54.076Z,100547.25
2022-10-22T04:37:55.640Z,100544.56
2022-10-22T04:39:58.235Z,100543.16
2022-10-22T04:41:59.925Z,100550.22
2022-10-22T04:44:02.359Z,100523.66
2022-10-22T04:46:05.996Z,100526.13
2022-10-22T04:48:07.464Z,100538.88
2022-10-22T04:50:09.412Z,100536.22
2022-10-22T04:52:11.109Z,100544.03
2022-10-22T04:54:14.312Z,100548.31
2022-10-22T04:56:19.262Z,100534.19
2022-10-22T04:58:20.873Z,100541.69
2022-10-22T05:00:22.356Z,100534.94
2022-10-22T05:02:25.316Z,100530.53
2022-10-22T05:04:26.877Z,100533.31
2022-10-22T05:06:29.936Z,100541.47
2022-10-22T05:08:31.529Z,100534.50
2022-10-22T05:10:33.088Z,100540.59
2022-10-22T05:12:35.322Z,100547.66
2022-10-22T05:14:39.291Z,100539.63
2022-10-22T05:16:43.373Z,100552.06
2022-10-22T05:18:46.289Z,100548.41
2022-10-22T05:20:47.786Z,100551.75
2022-10-22T05:22:49.306Z,100549.59
2022-10-22T05:24:50.840Z,100549.81
2022-10-22T05:26:53.482Z,100539.50
2022-10-22T05:28:55.204Z,100549.97
2022-10-22T05:30:58.177Z,100550.19
2022-10-22T05:32:59.655Z,100552.13
2022-10-22T05:35:02.562Z,100550.19
2022-10-22T05:37:04.251Z,100548.69
2022-10-22T05:39:06.074Z,100543.13
2022-10-22T05:41:11.933Z,100555.53
2022-10-22T05:43:16.823Z,100549.34
2022-10-22T05:45:18.327Z,100553.81
2022-10-22T05:47:20.016Z,100554.25
2022-10-22T05:49:21.516Z,100559.38
2022-10-22T05:51:25.745Z,100561.50
2022-10-22T05:53:27.249Z,100564.72
2022-10-22T05:55:28.748Z,100567.72
2022-10-22T05:57:30.342Z,100573.59
2022-10-22T05:59:31.941Z,100570.69
2022-10-22T06:01:34.537Z,100574.78
2022-10-22T06:03:36.030Z,100565.16
2022-10-22T06:05:39.996Z,100579.47
2022-10-22T06:07:42.986Z,100572.22
2022-10-22T06:09:44.636Z,100572.22
2022-10-22T06:11:46.570Z,100572.63
2022-10-22T06:13:49.266Z,100571.34
2022-10-22T06:15:51.086Z,100563.44
2022-10-22T06:17:52.763Z,100564.94
2022-10-22T06:19:54.269Z,100573.59
2022-10-22T06:21:55.785Z,100584.19
2022-10-22T06:24:00.148Z,100585.25
2022-10-22T06:26:01.936Z,100585.41
2022-10-22T06:28:03.674Z,100594.59
2022-10-22T06:30:06.245Z,100595.00
2022-10-22T06:32:07.702Z,100598.44
2022-10-22T06:34:12.507Z,100617.69
2022-10-22T06:36:16.397Z,100609.13
2022-10-22T06:38:18.400Z,100615.78
2022-10-22T06:40:21.449Z,100612.84
2022-10-22T06:42:25.654Z,100618.53
2022-10-22T06:44:27.314Z,100625.91
2022-10-22T06:46:28.845Z,100627.41
2022-10-22T06:48:30.655Z,100623.00
2022-10-22T06:50:34.174Z,100624.84
2022-10-22T06:52:35.637Z,100617.66
2022-10-22T06:54:37.236Z,100630.63
2022-10-22T06:56:40.312Z,100637.91
2022-10-22T06:58:41.857Z,100626.03
2022-10-22T07:00:43.372Z,100621.66
2022-10-22T07:02:44.879Z,100630.22
2022-10-22T07:04:46.358Z,100622.78
2022-10-22T07:06:47.919Z,100624.06
2022-10-22T07:08:49.922Z,100621.41
2022-10-22T07:10:51.444Z,100620.66
2022-10-22T07:12:54.307Z,100623.88
2022-10-22T07:14:55.768Z,100623.97
2022-10-22T07:16:57.264Z,100627.63
2022-10-22T07:18:59.022Z,100611.56
2022-10-22T07:21:00.917Z,100630.97
2022-10-22T07:23:02.404Z,100632.34
2022-10-22T07:25:07.270Z,100633.09
2022-10-22T07:27:11.813Z,100635.03
2022-10-22T07:29:14.852Z,100632.88
2022-10-22T07:31:17.916Z,100638.25
2022-10-22T07:33:19.384Z,100649.06
2022-10-22T07:35:20.854Z,100659.97
2022-10-22T07:37:22.453Z,100654.75
2022-10-22T07:39:23.934Z,100661.19
2022-10-22T07:41:26.787Z,100663.44
2022-10-22T07:43:29.217Z,100669.22
2022-10-22T07:45:32.085Z,100672.34
2022-10-22T07:47:33.952Z,100678.34
2022-10-22T07:49:35.687Z,100681.97
2022-10-22T07:51:37.198Z,100689.25
2022-10-22T07:53:38.930Z,100676.84
2022-10-22T07:55:40.397Z,100677.00
2022-10-22T07:57:41.862Z,100684.44
2022-10-22T07:59:43.393Z,100688.81
2022-10-22T08:01:46.367Z,100686.16
2022-10-22T08:03:48.252Z,100684.97
2022-10-22T08:05:51.170Z,100692.25
2022-10-22T08:07:52.766Z,100688.94
2022-10-22T08:09:54.360Z,100687.72
2022-10-22T08:11:55.923Z,100683.91
2022-10-22T08:13:57.436Z,100692.69
2022-10-22T08:15:59.821Z,100692.69
2022-10-22T08:18:02.740Z,100687.13
2022-10-22T08:20:04.801Z,100696.97
2022-10-22T08:22:06.358Z,100690.31
2022-10-22T08:26:10.243Z,100694.63
2022-10-22T08:28:12.031Z,100690.53
2022-10-22T08:30:14.229Z,100702.75
2022-10-22T08:32:15.941Z,100708.13
2022-10-22T08:34:19.421Z,100705.97
2022-10-22T08:36:20.947Z,100720.75
2022-10-22T08:38:22.430Z,100715.50
2022-10-22T08:40:30.180Z,100715.94
2022-10-22T08:42:44.596Z,100718.63
2022-10-22T08:45:07.700Z,100726.88
2022-10-22T08:47:33.629Z,100721.00
2022-10-22T08:49:41.363Z,100719.38
2022-10-22T08:51:44.104Z,100720.13
2022-10-22T08:54:00.720Z,100729.75
2022-10-22T08:56:02.228Z,100723.22
2022-10-22T08:58:11.784Z,100730.94
2022-10-22T09:00:17.784Z,100719.47
2022-10-22T09:02:30.705Z,100725.03
2022-10-22T09:04:40.137Z,100736.81
2022-10-22T09:06:42.107Z,100727.50
2022-10-22T09:08:46.304Z,100738.31
2022-10-22T09:10:51.148Z,100741.50
2022-10-22T09:12:53.142Z,100733.13
2022-10-22T09:14:54.906Z,100732.63
2022-10-22T09:17:12.398Z,100739.03
2022-10-22T09:19:21.476Z,100739.84
2022-10-22T09:21:33.829Z,100747.50
2022-10-22T09:23:39.874Z,100746.56
2022-10-22T09:25:42.747Z,100740.22
2022-10-22T09:27:44.635Z,100741.94
2022-10-22T09:29:48.172Z,100744.16
2022-10-22T09:31:50.763Z,100741.47
2022-10-22T09:33:52.272Z,100755.19
2022-10-22T09:35:57.066Z,100749.34
2022-10-22T09:38:07.260Z,100755.19
2022-10-22T09:40:15.187Z,100757.00
2022-10-22T09:42:18.994Z,100757.13
2022-10-22T09:44:21.161Z,100765.91
2022-10-22T09:46:24.549Z,100756.78
2022-10-22T09:48:30.025Z,100763.03
2022-10-22T09:50:43.012Z,100762.56
2022-10-22T09:52:44.810Z,100770.41
2022-10-22T09:54:52.699Z,100763.56
2022-10-22T09:57:06.545Z,100764.81
2022-10-22T09:59:14.252Z,100764.13
2022-10-22T10:01:21.065Z,100755.34
2022-10-22T10:03:26.146Z,100762.94
2022-10-22T10:05:34.919Z,100759.28
2022-10-22T10:07:37.223Z,100764.03
2022-10-22T10:09:38.766Z,100759.03
2022-10-22T10:11:46.335Z,100764.66
2022-10-22T10:13:58.480Z,100769.28
2022-10-22T10:16:07.756Z,100772.72
2022-10-22T10:18:31.625Z,100767.06
2022-10-22T10:20:41.816Z,100778.22
2022-10-22T10:22:54.306Z,100777.94
2022-10-22T10:25:12.094Z,100765.31
2022-10-22T10:27:22.788Z,100770.50
2022-10-22T10:29:39.230Z,100765.13
2022-10-22T10:31:52.415Z,100763.41
2022-10-22T10:34:04.614Z,100767.56
2022-10-22T10:36:14.698Z,100766.84
2022-10-22T10:38:37.572Z,100760.00
2022-10-22T10:40:48.179Z,100765.38
2022-10-22T10:42:55.714Z,100766.59
2022-10-22T10:45:09.223Z,100764.88
2022-10-22T10:47:26.307Z,100766.84
2022-10-22T10:49:31.566Z,100762.69
2022-10-22T10:51:45.145Z,100771.25
2022-10-22T10:54:00.596Z,100769.94
2022-10-22T10:56:12.973Z,100765.63
2022-10-22T10:58:21.560Z,100771.53
2022-10-22T11:00:23.999Z,100770.31
2022-10-22T11:02:51.941Z,100768.88
2022-10-22T11:05:07.469Z,100775.94
2022-10-22T11:07:23.446Z,100773.91
2022-10-22T11:09:37.468Z,100776.06
2022-10-22T11:11:44.157Z,100772.34
2022-10-22T11:13:53.226Z,100764.13
2022-10-22T11:16:00.878Z,100758.75
2022-10-22T11:18:11.945Z,100776.31
2022-10-22T11:20:19.782Z,100775.78
2022-10-22T11:22:27.472Z,100769.41
2022-10-22T11:24:38.870Z,100767.22
2022-10-22T11:26:46.931Z,100760.38
2022-10-22T11:28:53.283Z,100760.38
2022-10-22T11:31:00.034Z,100756.44
2022-10-22T11:33:07.163Z,100757.56
2022-10-22T11:35:14.548Z,100763.53
2022-10-22T11:37:17.131Z,100762.63
2022-10-22T11:39:30.507Z,100760.97
2022-10-22T11:41:34.200Z,100760.97
2022-10-22T11:43:56.690Z,100765.25
2022-10-22T11:46:02.260Z,100768.94
2022-10-22T11:48:15.547Z,100772.09
2022-10-22T11:50:21.957Z,100767.59
2022-10-22T11:52:27.156Z,100765.88
2022-10-22T11:54:38.980Z,100760.94
2022-10-22T11:56:40.923Z,100762.09
2022-10-22T11:58:43.718Z,100757.25
2022-10-22T12:00:48.495Z,100756.66
2022-10-22T12:03:02.687Z,100760.88
2022-10-22T12:05:35.345Z,100753.13
2022-10-22T12:07:53.928Z,100760.09
2022-10-22T12:09:57.480Z,100765.63
2022-10-22T12:12:12.517Z,100762.38
2022-10-22T12:14:18.855Z,100764.00
2022-10-22T12:16:32.437Z,100764.00
2022-10-22T12:18:47.024Z,100760.78
2022-10-22T12:20:50.736Z,100760.22
2022-10-22T12:22:53.178Z,100766.16
2022-10-22T12:24:59.388Z,100766.78
2022-10-22T12:27:00.945Z,100767.22
2022-10-22T12:29:09.464Z,100762.81
2022-10-22T12:31:15.912Z,100767.50
2022-10-22T12:33:21.971Z,100763.19
2022-10-22T12:35:25.842Z,100769.84
2022-10-22T12:37:29.481Z,100765.03
2022-10-22T12:39:30.965Z,100767.03
2022-10-22T12:41:33.992Z,100777.84
2022-10-22T12:43:37.453Z,100775.28
2022-10-22T12:45:40.129Z,100766.59
2022-10-22T12:47:46.128Z,100768.66
2022-10-22T12:49:51.942Z,100763.84
2022-10-22T12:51:53.505Z,100757.38
2022-10-22T12:53:56.806Z,100764.84
2022-10-22T12:56:02.292Z,100764.13
2022-10-22T12:58:06.164Z,100770.38
2022-10-22T13:00:21.006Z,100762.72
2022-10-22T13:02:25.143Z,100770.81
2022-10-22T13:04:34.513Z,100768.63
2022-10-22T13:06:37.482Z,100762.81
2022-10-22T13:08:40.059Z,100767.03
2022-10-22T13:10:50.284Z,100772.16
2022-10-22T13:12:55.997Z,100771.66
2022-10-22T13:14:57.533Z,100774.22
2022-10-22T13:17:08.227Z,100781.59
2022-10-22T13:19:41.504Z,100777.03
2022-10-22T13:21:48.862Z,100782.69
2022-10-22T13:23:55.235Z,100771.19
2022-10-22T13:26:00.325Z,100765.22
2022-10-22T13:28:12.729Z,100768.47
2022-10-22T13:30:25.750Z,100773.56
2022-10-22T13:32:30.134Z,100774.31
2022-10-22T13:34:32.065Z,100780.66
2022-10-22T13:36:33.594Z,100775.53
2022-10-22T13:38:36.444Z,100779.53
2022-10-22T13:40:38.634Z,100776.13
2022-10-22T13:42:40.544Z,100781.53
2022-10-22T13:44:42.369Z,100784.22
2022-10-22T13:46:44.636Z,100778.81
2022-10-22T13:48:47.719Z,100786.09
2022-10-22T13:50:49.941Z,100781.25
2022-10-22T13:52:53.809Z,100786.66
2022-10-22T13:54:56.691Z,100785.22
2022-10-22T13:56:58.153Z,100790.88
2022-10-22T13:58:59.778Z,100785.75
2022-10-22T14:01:03.146Z,100786.03
2022-10-22T14:03:05.490Z,100792.31
2022-10-22T14:05:07.784Z,100789.63
2022-10-22T14:07:13.695Z,100782.88
2022-10-22T14:09:16.107Z,100800.25
2022-10-22T14:11:19.247Z,100789.72
2022-10-22T14:13:21.368Z,100795.38
2022-10-22T14:15:27.650Z,100801.31
2022-10-22T14:17:34.751Z,100795.19
2022-10-22T14:19:40.045Z,100799.59
2022-10-22T14:21:41.538Z,100797.91
2022-10-22T14:23:44.955Z,100797.19
2022-10-22T14:25:46.546Z,100794.47
2022-10-22T14:27:49.578Z,100794.28
2022-10-22T14:29:51.996Z,100803.91
2022-10-22T14:31:54.770Z,100799.22
2022-10-22T14:33:56.353Z,100807.59
2022-10-22T14:36:00.370Z,100802.06
2022-10-22T14:38:01.863Z,100807.94
2022-10-22T14:40:04.101Z,100805.88
2022-10-22T14:42:05.710Z,100812.78
2022-10-22T14:44:11.436Z,100813.66
2022-10-22T14:46:15.340Z,100821.41
2022-10-22T14:48:17.223Z,100814.56
2022-10-22T14:50:19.262Z,100813.72
2022-10-22T14:52:20.931Z,100812.84
2022-10-22T14:54:22.478Z,100818.19
2022-10-22T14:56:23.980Z,100824.69
2022-10-22T14:58:25.692Z,100823.69
2022-10-22T15:00:28.731Z,100829.81
2022-10-22T15:02:30.302Z,100816.00
2022-10-22T15:04:34.728Z,100823.56
2022-10-22T15:06:36.344Z,100824.72
2022-10-22T15:08:38.076Z,100820.28
2022-10-22T15:10:39.872Z,100824.44
2022-10-22T15:12:41.445Z,100827.84
2022-10-22T15:14:42.916Z,100825.47
2022-10-22T15:16:47.097Z,100826.69
2022-10-22T15:18:48.732Z,100829.78
2022-10-22T15:20:58.034Z,100832.47
2022-10-22T15:22:59.540Z,100839.34
2022-10-22T15:25:01.155Z,100841.97
2022-10-22T15:27:02.722Z,100838.41
2022-10-22T15:29:05.041Z,100839.53
2022-10-22T15:31:07.756Z,100836.22
2022-10-22T15:33:10.744Z,100840.38
2022-10-22T15:35:12.502Z,100840.25
2022-10-22T15:37:14.043Z,100844.91
2022-10-22T15:39:15.909Z,100841.38
2022-10-22T15:41:17.402Z,100842.13
2022-10-22T15:43:18.991Z,100842.00
2022-10-22T15:45:20.621Z,100845.31
2022-10-22T15:47:25.765Z,100845.75
2022-10-22T15:49:28.729Z,100840.25
2022-10-22T15:51:30.391Z,100848.06
2022-10-22T15:53:31.906Z,100852.72
2022-10-22T15:55:36.317Z,100848.56
2022-10-22T15:57:38.253Z,100849.03
2022-10-22T15:59:39.869Z,100846.94
2022-10-22T16:01:45.553Z,100851.16
2022-10-22T16:03:47.109Z,100852.63
2022-10-22T16:05:51.978Z,100851.13
2022-10-22T16:07:54.733Z,100852.47
2022-10-22T16:09:57.480Z,100850.56
2022-10-22T16:11:59.028Z,100858.97
2022-10-22T16:14:01.522Z,100856.88
2022-10-22T16:16:05.542Z,100864.41
2022-10-22T16:18:07.559Z,100868.31
2022-10-22T16:20:10.365Z,100868.53
2022-10-22T16:22:13.355Z,100879.03
2022-10-22T16:24:14.883Z,100870.94
2022-10-22T16:26:17.418Z,100874.41
2022-10-22T16:28:18.950Z,100874.25
2022-10-22T16:30:20.481Z,100878.34
2022-10-22T16:32:22.229Z,100881.25
2022-10-22T16:34:26.358Z,100881.59
2022-10-22T16:36:27.909Z,100882.81
2022-10-22T16:38:30.829Z,100882.19
2022-10-22T16:40:32.415Z,100874.03
2022-10-22T16:42:33.930Z,100881.34
2022-10-22T16:44:39.725Z,100887.16
2022-10-22T16:46:47.664Z,100882.84
2022-10-22T16:48:51.613Z,100888.63
2022-10-22T16:50:53.273Z,100894.88
2022-10-22T16:52:54.802Z,100890.47
2022-10-22T16:54:57.861Z,100899.81
2022-10-22T16:56:59.371Z,100905.63
2022-10-22T16:59:01.042Z,100906.06
2022-10-22T17:01:06.327Z,100909.72
2022-10-22T17:03:10.801Z,100913.34
2022-10-22T17:05:12.285Z,100902.00
2022-10-22T17:07:13.860Z,100919.91
2022-10-22T17:09:15.404Z,100923.34
2022-10-22T17:11:20.686Z,100918.31
2022-10-22T17:13:22.286Z,100924.75
2022-10-22T17:15:24.022Z,100928.81
2022-10-22T17:17:25.604Z,100931.50
2022-10-22T17:19:27.400Z,100935.25
2022-10-22T17:21:29.180Z,100940.84
2022-10-22T17:23:30.735Z,100936.53
2022-10-22T17:25:36.565Z,100939.34
2022-10-22T17:27:39.884Z,100938.16
2022-10-22T17:29:41.636Z,100948.22
2022-10-22T17:31:43.194Z,100949.41
2022-10-22T17:33:45.951Z,100937.63
2022-10-22T17:35:47.447Z,100950.47
2022-10-22T17:37:49.109Z,100957.88
2022-10-22T17:39:50.700Z,100953.28
2022-10-22T17:41:52.506Z,100956.91
2022-10-22T17:43:56.560Z,100956.38
2022-10-22T17:46:03.907Z,100966.69
2022-10-22T17:48:05.808Z,100968.06
2022-10-22T17:50:08.561Z,100966.53
2022-10-22T17:52:10.312Z,100964.81
2022-10-22T17:54:13.157Z,100964.81
2022-10-22T17:56:17.896Z,100966.72
2022-10-22T17:58:19.509Z,100962.06
2022-10-22T18:00:22.437Z,100960.31
2022-10-22T18:02:24.039Z,100961.72
2022-10-22T18:04:25.596Z,100954.56
2022-10-22T18:06:27.823Z,100949.19
2022-10-22T18:08:29.355Z,100954.78
2022-10-22T18:10:30.884Z,100952.63
2022-10-22T18:12:32.422Z,100952.63
2022-10-22T18:14:33.981Z,100959.50
2022-10-22T18:16:37.006Z,100956.19
2022-10-22T18:18:38.495Z,100958.53
2022-10-22T18:20:39.970Z,100961.00
2022-10-22T18:22:41.881Z,100973.44
2022-10-22T18:24:43.364Z,100963.81
2022-10-22T18:26:44.970Z,100965.72
2022-10-22T18:28:47.003Z,100971.09
2022-10-22T18:30:48.813Z,100971.94
2022-10-22T18:32:51.671Z,100967.00
2022-10-22T18:34:53.171Z,100972.81
2022-10-22T18:36:54.688Z,100971.63
2022-10-22T18:39:01.059Z,100977.75
2022-10-22T18:41:02.625Z,100971.75
2022-10-22T18:43:04.153Z,100976.88
2022-10-22T18:45:07.049Z,100974.19
2022-10-22T18:47:08.583Z,100975.38
2022-10-22T18:49:15.815Z,100974.00
2022-10-22T18:51:17.406Z,100971.53
2022-10-22T18:53:18.912Z,100972.81
2022-10-22T18:55:20.463Z,100968.31
2022-10-22T18:57:22.007Z,100982.47
2022-10-22T18:59:26.011Z,100973.66
2022-10-22T19:01:27.611Z,100970.44
2022-10-22T19:03:29.135Z,100973.34
2022-10-22T19:05:32.169Z,100976.44
2022-10-22T19:07:34.336Z,100976.44
2022-10-22T19:09:36.098Z,100988.22
2022-10-22T19:11:37.755Z,100984.16
2022-10-22T19:13:39.415Z,100992.09
2022-10-22T19:15:41.093Z,100989.13
2022-10-22T19:17:42.892Z,100990.31
2022-10-22T19:19:44.942Z,100992.44
2022-10-22T19:21:48.780Z,100995.22
2022-10-22T19:23:50.341Z,100991.88
2022-10-22T19:26:00.400Z,100996.41
2022-10-22T19:28:01.919Z,100996.91
2022-10-22T19:30:04.177Z,100994.53
2022-10-22T19:32:05.880Z,100996.75
2022-10-22T19:34:07.367Z,101004.25
2022-10-22T19:36:11.855Z,101007.09
2022-10-22T19:38:14.750Z,101006.44
2022-10-22T19:40:16.305Z,101009.22
2022-10-22T19:42:17.929Z,101007.69
2022-10-22T19:44:19.460Z,101013.25
2022-10-22T19:46:22.511Z,101007.91
2022-10-22T19:48:24.139Z,101016.69
2022-10-22T19:50:25.652Z,101019.94
2022-10-22T19:52:27.128Z,101023.38
2022-10-22T19:54:30.148Z,101029.38
2022-10-22T19:56:33.116Z,101025.69
2022-10-22T19:58:36.411Z,101032.44
2022-10-22T20:00:38.238Z,101028.34
2022-10-22T20:02:39.766Z,101036.00
2022-10-22T20:04:41.321Z,101035.22
2022-10-22T20:06:42.961Z,101042.78
2022-10-22T20:08:46.631Z,101030.66
2022-10-22T20:10:49.777Z,101039.28
2022-10-22T20:12:51.263Z,101040.25
2022-10-22T20:14:55.560Z,101040.25
2022-10-22T20:16:57.043Z,101050.34
2022-10-22T20:19:04.282Z,101048.44
2022-10-22T20:21:06.666Z,101051.22
2022-10-22T20:23:08.142Z,101052.06
2022-10-22T20:25:09.730Z,101050.56
2022-10-22T20:27:13.318Z,101055.16
2022-10-22T20:29:15.687Z,101058.00
2022-10-22T20:31:20.047Z,101047.97
2022-10-22T20:33:21.650Z,101056.28
2022-10-22T20:35:23.260Z,101062.41
2022-10-22T20:37:25.056Z,101062.22
2022-10-22T20:39:26.716Z,101066.31
2022-10-22T20:41:28.808Z,101061.81
2022-10-22T20:43:32.494Z,101065.06
2022-10-22T20:45:35.185Z,101070.22
2022-10-22T20:47:50.810Z,101070.03
2022-10-22T20:49:58.985Z,101076.34
2022-10-22T20:52:00.467Z,101075.19
2022-10-22T20:54:02.087Z,101077.25
2022-10-22T20:56:04.176Z,101072.84
2022-10-22T20:58:05.677Z,101081.88
2022-10-22T21:00:10.065Z,101080.03
2022-10-22T21:02:12.441Z,101084.25
2022-10-22T21:04:14.549Z,101085.84
2022-10-22T21:06:16.238Z,101086.72
2022-10-22T21:08:17.947Z,101078.00
2022-10-22T21:10:19.466Z,101086.63
2022-10-22T21:12:20.984Z,101087.69
2022-10-22T21:14:22.506Z,101078.88
2022-10-22T21:16:25.495Z,101085.56
2022-10-22T21:18:27.003Z,101087.47
2022-10-22T21:20:28.891Z,101094.56
2022-10-22T21:22:31.109Z,101106.34
2022-10-22T21:24:34.933Z,101098.19
2022-10-22T21:26:37.011Z,101107.31
2022-10-22T21:28:39.074Z,101104.63
2022-10-22T21:30:44.674Z,101105.47
2022-10-22T21:32:47.620Z,101101.09
2022-10-22T21:34:49.168Z,101104.03
2022-10-22T21:36:50.747Z,101112.19
2022-10-22T21:38:53.182Z,101108.44
2022-10-22T21:40:54.653Z,101112.00
2022-10-22T21:42:56.186Z,101113.91
2022-10-22T21:44:57.747Z,101120.78
2022-10-22T21:46:59.294Z,101115.31
2022-10-22T21:49:05.110Z,101118.22
2022-10-22T21:51:08.251Z,101109.13
2022-10-22T21:53:11.216Z,101133.91
2022-10-22T21:55:12.733Z,101119.94
2022-10-22T21:57:14.291Z,101121.56
2022-10-22T21:59:15.782Z,101117.47
2022-10-22T22:01:17.792Z,101125.66
2022-10-22T22:03:19.422Z,101118.13
2022-10-22T22:05:22.409Z,101114.94
2022-10-22T22:07:23.911Z,101119.94
2022-10-22T22:09:25.460Z,101117.25
2022-10-22T22:11:28.621Z,101113.06
2022-10-22T22:13:30.832Z,101107.91
2022-10-22T22:15:32.489Z,101108.88
2022-10-22T22:17:34.125Z,101090.91
2022-10-22T22:19:35.651Z,101098.75
2022-10-22T22:21:39.807Z,101110.44
2022-10-22T22:23:43.356Z,101108.59
2022-10-22T22:25:44.873Z,101113.69
2022-10-22T22:27:46.435Z,101111.22
2022-10-22T22:29:47.980Z,101115.97
2022-10-22T22:31:50.009Z,101110.56
2022-10-22T22:33:52.111Z,101117.91
2022-10-22T22:35:57.985Z,101111.97
2022-10-22T22:38:00.861Z,101106.72
2022-10-22T22:40:02.401Z,101109.88
2022-10-22T22:42:04.143Z,101105.56
2022-10-22T22:44:05.864Z,101105.19
2022-10-22T22:46:11.545Z,101112.19
2022-10-22T22:48:13.161Z,101110.56
2022-10-22T22:50:14.756Z,101119.53
2022-10-22T22:52:16.360Z,101118.28
2022-10-22T22:54:19.251Z,101115.69
2022-10-22T22:56:22.575Z,101120.47
2022-10-22T22:58:24.142Z,101116.47
2022-10-22T23:00:25.818Z,101117.31
2022-10-22T23:02:27.444Z,101122.19
2022-10-22T23:04:31.039Z,101107.19
2022-10-22T23:06:35.187Z,101112.72
2022-10-22T23:08:37.033Z,101125.22
2022-10-22T23:10:40.201Z,101118.06
2022-10-22T23:12:42.059Z,101117.69
2022-10-22T23:14:43.771Z,101117.09
2022-10-22T23:16:47.540Z,101116.91
2022-10-22T23:18:49.909Z,101112.31
2022-10-22T23:20:52.124Z,101122.25
2022-10-22T23:22:54.101Z,101125.22
2022-10-22T23:24:55.667Z,101128.38
2022-10-22T23:27:00.935Z,101126.63
2022-10-22T23:29:03.756Z,101131.22
2022-10-22T23:31:05.578Z,101131.69
2022-10-22T23:33:08.150Z,101125.13
2022-10-22T23:35:09.759Z,101129.63
2022-10-22T23:37:12.026Z,101130.56